High Point, New Jersey
Current Conditions -  °F | °C
As of 6:53 AM on Thursday 18 Dec 2014 (Local Time) from KFWN Reporting Station
Overcast Overcast  
Wind Chill: -2°   Ceiling: 3800
Heat Index:   Visibility: 10mi
Dew Point: -6°   Wind: 12mph
Humidity: 57%   Direction: 320°NW
Pressure: 29.96"   Gusts: 22mph
Location:  41.2395°N, 74.6087°W
Report Text: KFWN 181153Z AUTO 32010G19KT 280V340 10SM OVC038 02/M06 A2996 RMK AO2 SLP148 T00221056 10039 20022 53016
Loading
Personal Weather Stations






























Interactive Weather Map New forecast layout! Learn more

10-Day Weather Forecast

Advertisements
Track Severe Weather on mobile